Time;durP1;ratioP1;P1;durP2;ratioP2;P2;SDS_P1;SDS_P2;PMS_P1;PMS_P2;Temp;Humidity;BMP_temperature;BMP_pressure;BME280_temperature;BME280_humidity;BME280_pressure;Samples;Min_cycle;Max_cycle;Signal;HPM_P1;HPM_P2
2021/09/08 00:00:35;;;;;;;19.53;17.17;;;;;;;;;;5040955;28;20203;-81
2021/09/08 00:03:01;;;;;;;22.50;17.83;;;;;;;;;;5041307;28;20254;-81
2021/09/08 00:05:26;;;;;;;19.97;17.87;;;;;;;;;;5035473;28;20176;-79
2021/09/08 00:07:51;;;;;;;20.50;18.30;;;;;;;;;;5038212;28;20268;-79
2021/09/08 00:10:17;;;;;;;20.17;17.97;;;;;;;;;;5039605;28;20179;-79
2021/09/08 00:12:42;;;;;;;21.23;18.90;;;;;;;;;;5041854;28;20216;-79
2021/09/08 00:15:09;;;;;;;20.63;17.43;;;;;;;;;;5039936;28;20223;-79
2021/09/08 00:17:34;;;;;;;21.80;18.67;;;;;;;;;;5042266;28;20188;-80
2021/09/08 00:19:59;;;;;;;21.20;18.80;;;;;;;;;;5042701;28;20542;-79
2021/09/08 00:22:25;;;;;;;20.20;17.50;;;;;;;;;;5041785;28;20602;-80
2021/09/08 00:24:50;;;;;;;22.20;18.00;;;;;;;;;;5043759;28;20207;-80
2021/09/08 00:27:16;;;;;;;22.80;18.70;;;;;;;;;;5041596;28;20675;-80
2021/09/08 00:29:41;;;;;;;21.40;18.23;;;;;;;;;;5039524;28;20184;-80
2021/09/08 00:32:06;;;;;;;20.53;18.27;;;;;;;;;;5039515;28;20180;-80
2021/09/08 00:34:31;;;;;;;21.20;18.70;;;;;;;;;;5038675;28;20207;-79
2021/09/08 00:36:57;;;;;;;19.80;17.47;;;;;;;;;;5039991;28;20536;-80
2021/09/08 00:39:22;;;;;;;22.77;18.70;;;;;;;;;;5043457;28;20180;-81
2021/09/08 00:41:47;;;;;;;21.03;18.60;;;;;;;;;;5040898;28;20176;-80
2021/09/08 00:44:14;;;;;;;22.33;18.70;;;;;;;;;;5042176;28;20196;-80
2021/09/08 00:46:40;;;;;;;22.23;18.80;;;;;;;;;;5042439;28;20168;-79
2021/09/08 00:49:05;;;;;;;23.00;19.43;;;;;;;;;;5038645;28;20442;-79
2021/09/08 00:51:31;;;;;;;23.47;19.10;;;;;;;;;;5038847;28;20435;-80
2021/09/08 00:53:57;;;;;;;22.00;19.47;;;;;;;;;;5042088;28;20294;-79
2021/09/08 00:56:24;;;;;;;21.30;18.20;;;;;;;;;;5040856;28;20180;-78
2021/09/08 00:58:49;;;;;;;23.73;18.83;;;;;;;;;;5041328;28;20439;-78
2021/09/08 01:01:14;;;;;;;26.27;20.53;;;;;;;;;;5038298;28;20538;-80
2021/09/08 01:03:39;;;;;;;23.97;19.17;;;;;;;;;;5040277;28;20608;-79
2021/09/08 01:06:05;;;;;;;21.60;18.53;;;;;;;;;;5041174;28;20186;-80
2021/09/08 01:08:30;;;;;;;22.10;19.23;;;;;;;;;;5043319;28;20216;-79
2021/09/08 01:10:55;;;;;;;19.40;17.40;;;;;;;;;;5039564;28;20179;-79
2021/09/08 01:13:21;;;;;;;22.50;18.60;;;;;;;;;;5043325;28;20682;-80
2021/09/08 01:15:54;;;;;;;23.10;19.63;;;;;;;;;;5038364;28;20665;-79
2021/09/08 01:18:19;;;;;;;20.20;17.13;;;;;;;;;;5037912;28;20173;-80
2021/09/08 01:20:44;;;;;;;22.83;18.23;;;;;;;;;;5039416;28;20437;-80
2021/09/08 01:23:09;;;;;;;20.60;18.40;;;;;;;;;;5037955;28;20203;-79
2021/09/08 01:25:35;;;;;;;22.70;19.43;;;;;;;;;;5039308;28;20195;-79
2021/09/08 01:28:00;;;;;;;23.50;18.27;;;;;;;;;;5040659;28;20237;-80
2021/09/08 01:30:25;;;;;;;20.60;17.90;;;;;;;;;;5040145;28;20180;-80
2021/09/08 01:32:51;;;;;;;22.83;18.00;;;;;;;;;;5037764;28;20580;-81
2021/09/08 01:35:17;;;;;;;20.67;17.67;;;;;;;;;;5039222;28;20207;-80
2021/09/08 01:37:42;;;;;;;22.17;18.13;;;;;;;;;;5040299;28;20194;-80
2021/09/08 01:40:10;;;;;;;22.63;18.83;;;;;;;;;;5039482;28;20437;-80
2021/09/08 01:42:35;;;;;;;20.67;18.43;;;;;;;;;;5042207;28;20187;-81
2021/09/08 01:45:00;;;;;;;26.90;19.57;;;;;;;;;;5038637;28;20456;-80
2021/09/08 01:47:26;;;;;;;23.90;19.93;;;;;;;;;;5038868;28;20274;-80
2021/09/08 01:49:51;;;;;;;23.90;19.07;;;;;;;;;;5040648;28;20175;-80
2021/09/08 01:52:16;;;;;;;24.30;20.10;;;;;;;;;;5042572;28;20218;-80
2021/09/08 01:54:41;;;;;;;23.90;19.27;;;;;;;;;;5039324;28;20257;-81
2021/09/08 01:57:07;;;;;;;24.03;19.40;;;;;;;;;;5039575;28;20181;-80
2021/09/08 01:59:32;;;;;;;27.63;21.37;;;;;;;;;;5037844;28;22246;-80
2021/09/08 02:01:58;;;;;;;21.90;18.93;;;;;;;;;;5038362;28;20176;-79
2021/09/08 02:04:23;;;;;;;26.63;18.87;;;;;;;;;;5036099;28;20265;-80
2021/09/08 02:06:50;;;;;;;24.10;20.90;;;;;;;;;;5038355;28;20184;-80
2021/09/08 02:09:15;;;;;;;24.30;20.27;;;;;;;;;;5036878;28;20184;-80
2021/09/08 02:11:41;;;;;;;22.73;19.77;;;;;;;;;;5037319;28;20952;-80
2021/09/08 02:14:06;;;;;;;28.13;21.10;;;;;;;;;;5035985;28;20199;-81
2021/09/08 02:16:31;;;;;;;24.27;21.30;;;;;;;;;;5038590;28;20173;-81
2021/09/08 02:18:57;;;;;;;26.73;22.00;;;;;;;;;;5041165;28;20188;-80
2021/09/08 02:21:22;;;;;;;27.17;22.07;;;;;;;;;;5038712;28;20271;-80
2021/09/08 02:23:47;;;;;;;24.73;20.87;;;;;;;;;;5039720;28;20207;-80
2021/09/08 02:26:12;;;;;;;27.23;21.30;;;;;;;;;;5042667;28;20274;-80
2021/09/08 02:28:38;;;;;;;24.00;20.50;;;;;;;;;;5041963;28;20176;-79
2021/09/08 02:31:03;;;;;;;29.50;24.63;;;;;;;;;;5043132;28;20213;-81
2021/09/08 02:33:28;;;;;;;27.67;22.27;;;;;;;;;;5040188;28;20208;-81
2021/09/08 02:35:54;;;;;;;27.00;22.77;;;;;;;;;;5040014;28;20211;-80
2021/09/08 02:38:19;;;;;;;28.97;22.63;;;;;;;;;;5038164;28;20182;-80
2021/09/08 02:40:44;;;;;;;26.80;22.93;;;;;;;;;;5040631;28;20548;-79
2021/09/08 02:43:10;;;;;;;28.80;22.40;;;;;;;;;;5038259;28;20207;-80
2021/09/08 02:45:35;;;;;;;30.07;23.20;;;;;;;;;;5041658;28;20187;-80
2021/09/08 02:48:00;;;;;;;27.10;22.10;;;;;;;;;;5036122;28;20894;-80
2021/09/08 02:50:26;;;;;;;28.40;22.47;;;;;;;;;;5037446;28;20275;-81
2021/09/08 02:52:51;;;;;;;26.67;21.90;;;;;;;;;;5041712;28;20561;-82
2021/09/08 02:55:16;;;;;;;27.80;21.50;;;;;;;;;;5040372;28;20199;-81
2021/09/08 02:57:41;;;;;;;24.70;21.33;;;;;;;;;;5041406;28;20179;-80
2021/09/08 03:00:07;;;;;;;26.37;21.60;;;;;;;;;;5041900;28;20730;-81
2021/09/08 03:02:33;;;;;;;27.33;20.90;;;;;;;;;;5040033;28;20209;-81
2021/09/08 03:04:58;;;;;;;25.73;20.60;;;;;;;;;;5039639;28;20176;-81
2021/09/08 03:07:24;;;;;;;25.07;20.13;;;;;;;;;;5038333;28;20517;-81
2021/09/08 03:09:49;;;;;;;25.43;20.57;;;;;;;;;;5038892;28;20211;-81
2021/09/08 03:12:14;;;;;;;27.20;21.03;;;;;;;;;;5038489;28;20176;-81
2021/09/08 03:14:39;;;;;;;26.30;21.10;;;;;;;;;;5038070;28;20216;-81
2021/09/08 03:17:05;;;;;;;24.53;21.23;;;;;;;;;;5040864;28;20176;-81
2021/09/08 03:19:30;;;;;;;23.47;20.00;;;;;;;;;;5038451;28;20191;-81
2021/09/08 03:21:55;;;;;;;26.43;21.40;;;;;;;;;;5041743;28;20215;-80
2021/09/08 03:24:21;;;;;;;23.27;20.73;;;;;;;;;;5043240;28;20236;-81
2021/09/08 03:26:46;;;;;;;25.43;20.40;;;;;;;;;;5041729;28;20545;-81
2021/09/08 03:29:11;;;;;;;27.50;21.40;;;;;;;;;;5046508;28;20188;-81
2021/09/08 03:31:36;;;;;;;24.37;19.50;;;;;;;;;;5042233;28;20181;-81
2021/09/08 03:34:01;;;;;;;24.50;20.80;;;;;;;;;;5044151;28;20207;-81
2021/09/08 03:36:27;;;;;;;26.60;20.80;;;;;;;;;;5042491;28;20207;-81
2021/09/08 03:38:52;;;;;;;24.40;19.87;;;;;;;;;;5040035;28;20306;-81
2021/09/08 03:41:17;;;;;;;24.10;20.00;;;;;;;;;;5043027;28;20551;-81
2021/09/08 03:43:43;;;;;;;22.77;19.33;;;;;;;;;;5043182;28;20758;-82
2021/09/08 03:46:08;;;;;;;25.10;20.57;;;;;;;;;;5039900;28;20238;-82
2021/09/08 03:48:34;;;;;;;25.40;20.50;;;;;;;;;;5043520;28;20226;-82
2021/09/08 03:50:59;;;;;;;20.83;17.97;;;;;;;;;;5040682;28;20187;-82
2021/09/08 03:53:24;;;;;;;22.73;18.20;;;;;;;;;;5043117;28;20220;-82
2021/09/08 03:55:49;;;;;;;22.23;19.00;;;;;;;;;;5041180;28;20530;-82
2021/09/08 03:58:15;;;;;;;22.30;19.90;;;;;;;;;;5040078;28;20179;-81
2021/09/08 04:00:40;;;;;;;23.23;18.43;;;;;;;;;;5041345;28;20212;-81
2021/09/08 04:03:05;;;;;;;23.77;19.67;;;;;;;;;;5043279;28;20199;-81
2021/09/08 04:05:30;;;;;;;24.27;19.77;;;;;;;;;;5042091;28;20190;-82
2021/09/08 04:07:56;;;;;;;28.50;21.00;;;;;;;;;;5042186;28;20187;-81
2021/09/08 04:10:23;;;;;;;21.27;18.50;;;;;;;;;;5040676;28;20649;-81
2021/09/08 04:12:48;;;;;;;21.63;18.53;;;;;;;;;;5046886;28;20203;-80
2021/09/08 04:15:13;;;;;;;23.73;20.00;;;;;;;;;;5048185;28;20466;-81
2021/09/08 04:17:39;;;;;;;24.47;19.67;;;;;;;;;;5044725;28;20173;-81
2021/09/08 04:20:04;;;;;;;22.33;19.63;;;;;;;;;;5047616;28;20182;-81
2021/09/08 04:22:30;;;;;;;22.73;19.30;;;;;;;;;;5044563;28;20187;-81
2021/09/08 04:24:55;;;;;;;23.33;19.97;;;;;;;;;;5043940;28;20184;-81
2021/09/08 04:27:20;;;;;;;21.90;19.30;;;;;;;;;;5046525;28;20187;-81
2021/09/08 04:29:45;;;;;;;21.60;18.80;;;;;;;;;;5044401;28;20789;-81
2021/09/08 04:32:10;;;;;;;20.47;17.77;;;;;;;;;;5045250;28;20667;-81
2021/09/08 04:34:36;;;;;;;23.47;19.03;;;;;;;;;;5044497;28;20549;-81
2021/09/08 04:37:01;;;;;;;24.20;19.10;;;;;;;;;;5045185;28;20199;-81
2021/09/08 04:39:26;;;;;;;19.20;17.00;;;;;;;;;;5044517;28;20207;-81
2021/09/08 04:41:52;;;;;;;20.90;18.20;;;;;;;;;;5043997;28;20200;-82
2021/09/08 04:44:17;;;;;;;21.20;18.10;;;;;;;;;;5051251;28;20232;-81
2021/09/08 04:46:42;;;;;;;24.70;19.80;;;;;;;;;;5040715;28;20184;-81
2021/09/08 04:49:07;;;;;;;20.40;18.20;;;;;;;;;;5040974;28;20630;-81
2021/09/08 04:51:33;;;;;;;24.27;17.23;;;;;;;;;;5042465;28;20180;-81
2021/09/08 04:53:58;;;;;;;22.60;18.20;;;;;;;;;;5040603;28;20211;-81
2021/09/08 04:56:23;;;;;;;20.90;18.50;;;;;;;;;;5039461;28;20204;-81
2021/09/08 04:58:48;;;;;;;20.40;17.83;;;;;;;;;;5039191;28;20180;-81
2021/09/08 05:01:14;;;;;;;19.57;16.33;;;;;;;;;;5042927;28;20805;-81
2021/09/08 05:03:39;;;;;;;22.43;18.17;;;;;;;;;;5040224;28;20196;-80
2021/09/08 05:06:05;;;;;;;19.87;17.33;;;;;;;;;;5042844;28;20183;-80
2021/09/08 05:08:30;;;;;;;21.70;18.17;;;;;;;;;;5042350;28;20446;-81
2021/09/08 05:10:55;;;;;;;20.67;18.07;;;;;;;;;;5042189;28;20256;-80
2021/09/08 05:13:20;;;;;;;24.10;17.40;;;;;;;;;;5042037;28;20204;-81
2021/09/08 05:15:46;;;;;;;21.83;16.27;;;;;;;;;;5046933;28;20298;-80
2021/09/08 05:18:11;;;;;;;18.80;16.80;;;;;;;;;;5044655;28;20175;-81
2021/09/08 05:20:36;;;;;;;21.47;17.67;;;;;;;;;;5045687;28;20175;-80
2021/09/08 05:23:02;;;;;;;19.07;16.90;;;;;;;;;;5046206;28;20233;-81
2021/09/08 05:25:27;;;;;;;20.83;17.33;;;;;;;;;;5037197;28;20264;-81
2021/09/08 05:27:52;;;;;;;20.00;16.27;;;;;;;;;;5040724;28;20185;-82
2021/09/08 05:30:17;;;;;;;20.20;16.50;;;;;;;;;;5040080;28;20246;-81
2021/09/08 05:32:43;;;;;;;21.47;18.13;;;;;;;;;;5040016;28;20671;-82
2021/09/08 05:35:12;;;;;;;21.70;17.07;;;;;;;;;;5042223;28;20200;-82
2021/09/08 05:37:37;;;;;;;20.30;17.17;;;;;;;;;;5042269;28;20183;-82
2021/09/08 05:40:03;;;;;;;22.57;17.53;;;;;;;;;;5043019;28;20418;-81
2021/09/08 05:42:28;;;;;;;22.80;16.10;;;;;;;;;;5042201;28;20180;-81
2021/09/08 05:44:53;;;;;;;23.73;17.63;;;;;;;;;;5044279;28;20168;-82
2021/09/08 05:47:19;;;;;;;20.63;16.93;;;;;;;;;;5048195;28;20184;-82
2021/09/08 05:49:45;;;;;;;20.53;17.73;;;;;;;;;;5040909;28;20207;-82
2021/09/08 05:52:10;;;;;;;18.90;16.60;;;;;;;;;;5042176;28;20438;-82
2021/09/08 05:54:35;;;;;;;20.30;17.43;;;;;;;;;;5042080;28;20208;-83
2021/09/08 05:57:01;;;;;;;23.70;17.40;;;;;;;;;;5044021;28;20259;-82
2021/09/08 05:59:26;;;;;;;19.70;16.87;;;;;;;;;;5038889;28;20260;-82
2021/09/08 06:01:52;;;;;;;21.83;18.87;;;;;;;;;;5041089;28;20262;-82
2021/09/08 06:04:17;;;;;;;19.27;16.93;;;;;;;;;;5047004;28;20193;-82
2021/09/08 06:06:42;;;;;;;20.30;17.57;;;;;;;;;;5042684;28;20342;-81
2021/09/08 06:09:07;;;;;;;20.20;16.70;;;;;;;;;;5044100;28;20187;-82
2021/09/08 06:11:32;;;;;;;22.47;17.37;;;;;;;;;;5034019;28;20230;-82
2021/09/08 06:13:58;;;;;;;20.40;15.93;;;;;;;;;;5034826;28;23212;-82
2021/09/08 06:16:23;;;;;;;21.43;17.60;;;;;;;;;;5040359;28;20207;-82
2021/09/08 06:18:49;;;;;;;22.30;18.20;;;;;;;;;;5038401;28;20183;-80
2021/09/08 06:21:14;;;;;;;20.67;17.17;;;;;;;;;;5042018;28;20175;-81
2021/09/08 06:23:39;;;;;;;19.60;16.97;;;;;;;;;;5041697;28;20196;-81
2021/09/08 06:26:04;;;;;;;22.73;18.10;;;;;;;;;;5039786;28;20184;-80
2021/09/08 06:28:30;;;;;;;18.37;15.90;;;;;;;;;;5040672;28;20192;-82
2021/09/08 06:30:55;;;;;;;18.73;16.60;;;;;;;;;;5043490;28;20175;-82
2021/09/08 06:33:21;;;;;;;23.90;16.77;;;;;;;;;;5043418;28;20204;-81
2021/09/08 06:35:49;;;;;;;19.00;16.10;;;;;;;;;;5039904;28;20189;-81
2021/09/08 06:38:15;;;;;;;19.03;16.20;;;;;;;;;;5039813;28;20199;-81
2021/09/08 06:40:40;;;;;;;23.80;17.13;;;;;;;;;;5039377;28;20442;-82
2021/09/08 06:43:05;;;;;;;19.37;16.53;;;;;;;;;;5040640;22;20227;-81
2021/09/08 06:45:31;;;;;;;18.93;16.10;;;;;;;;;;5014591;28;20604;-81
2021/09/08 06:47:56;;;;;;;20.17;16.57;;;;;;;;;;5017228;28;20637;-81
2021/09/08 06:50:21;;;;;;;18.30;15.97;;;;;;;;;;5008804;28;20189;-82
2021/09/08 06:52:46;;;;;;;17.57;15.20;;;;;;;;;;5022923;28;20209;-80
2021/09/08 06:55:12;;;;;;;21.03;15.37;;;;;;;;;;5009484;28;20229;-81
2021/09/08 06:57:37;;;;;;;19.90;15.90;;;;;;;;;;5008962;28;20181;-79
2021/09/08 07:00:03;;;;;;;18.80;15.53;;;;;;;;;;5004116;28;20217;-76
2021/09/08 07:02:28;;;;;;;18.30;15.93;;;;;;;;;;5005670;28;20181;-74
2021/09/08 07:04:53;;;;;;;20.63;15.90;;;;;;;;;;5008229;28;20436;-73
2021/09/08 07:07:20;;;;;;;17.77;14.10;;;;;;;;;;5009537;28;20652;-74
2021/09/08 07:09:46;;;;;;;16.43;14.73;;;;;;;;;;5011195;28;20189;-78
2021/09/08 07:12:11;;;;;;;18.90;14.70;;;;;;;;;;4991609;28;20894;-79
2021/09/08 07:14:36;;;;;;;16.23;13.80;;;;;;;;;;5010819;28;20200;-78
2021/09/08 07:17:02;;;;;;;13.90;11.70;;;;;;;;;;5008113;28;20181;-80
2021/09/08 07:19:27;;;;;;;15.57;13.57;;;;;;;;;;5008389;28;20334;-79
2021/09/08 07:21:52;;;;;;;15.87;13.10;;;;;;;;;;4997565;28;20177;-78
2021/09/08 07:24:17;;;;;;;12.50;11.20;;;;;;;;;;5037745;22;20228;-81
2021/09/08 07:26:43;;;;;;;14.77;11.90;;;;;;;;;;5027442;28;20219;-77
2021/09/08 07:29:09;;;;;;;13.53;12.13;;;;;;;;;;5027561;28;20582;-76
2021/09/08 07:31:34;;;;;;;15.60;13.20;;;;;;;;;;5033761;28;20526;-77
2021/09/08 07:33:59;;;;;;;15.23;13.33;;;;;;;;;;5020212;28;20695;-77
2021/09/08 07:36:25;;;;;;;12.33;10.97;;;;;;;;;;5019027;28;20784;-80
2021/09/08 07:38:50;;;;;;;12.77;11.27;;;;;;;;;;5020894;28;20172;-80
2021/09/08 07:41:16;;;;;;;13.13;11.53;;;;;;;;;;5024444;28;20275;-80
2021/09/08 07:43:42;;;;;;;14.57;12.10;;;;;;;;;;5025187;28;20197;-78
2021/09/08 07:46:07;;;;;;;15.23;13.37;;;;;;;;;;5017658;28;21355;-77
2021/09/08 07:48:32;;;;;;;14.70;13.00;;;;;;;;;;5024340;28;20183;-78
2021/09/08 07:50:58;;;;;;;14.10;12.60;;;;;;;;;;5020984;28;20180;-77
2021/09/08 07:53:23;;;;;;;13.90;12.23;;;;;;;;;;5021586;28;20588;-78
2021/09/08 07:55:48;;;;;;;13.33;11.33;;;;;;;;;;5016736;28;20254;-77
2021/09/08 07:58:16;;;;;;;13.57;10.90;;;;;;;;;;5015831;28;20649;-77
2021/09/08 08:00:41;;;;;;;11.13;9.93;;;;;;;;;;5024718;28;20895;-77
2021/09/08 08:03:06;;;;;;;13.70;11.27;;;;;;;;;;5021167;28;20675;-77
2021/09/08 08:05:32;;;;;;;14.80;12.57;;;;;;;;;;5019924;28;21133;-77
2021/09/08 08:07:58;;;;;;;13.27;11.77;;;;;;;;;;5020509;28;20188;-77
2021/09/08 08:10:23;;;;;;;11.00;9.90;;;;;;;;;;5019184;28;20552;-77
2021/09/08 08:12:48;;;;;;;12.93;10.73;;;;;;;;;;5017425;28;20196;-77
2021/09/08 08:15:14;;;;;;;13.53;11.47;;;;;;;;;;5023277;28;20192;-77
2021/09/08 08:17:39;;;;;;;13.13;10.70;;;;;;;;;;5020361;28;20184;-77
2021/09/08 08:20:08;;;;;;;10.77;9.63;;;;;;;;;;5016389;28;20174;-77
2021/09/08 08:22:33;;;;;;;13.47;10.83;;;;;;;;;;5020079;28;20192;-77
2021/09/08 08:25:01;;;;;;;11.87;9.63;;;;;;;;;;5018773;28;20442;-77
2021/09/08 08:27:26;;;;;;;10.83;9.73;;;;;;;;;;5019302;28;20181;-77
2021/09/08 08:29:54;;;;;;;14.73;12.37;;;;;;;;;;5020131;28;20984;-77
2021/09/08 08:32:19;;;;;;;14.00;11.37;;;;;;;;;;5015284;28;20700;-77
2021/09/08 08:34:44;;;;;;;10.60;9.50;;;;;;;;;;5019867;28;20575;-77
2021/09/08 08:37:09;;;;;;;10.70;9.60;;;;;;;;;;5019445;28;20181;-77
2021/09/08 08:39:38;;;;;;;9.80;8.63;;;;;;;;;;5021470;28;20604;-78
2021/09/08 08:42:03;;;;;;;10.50;9.13;;;;;;;;;;5015705;28;20184;-78
2021/09/08 08:44:29;;;;;;;11.77;9.90;;;;;;;;;;5018971;28;20447;-78
2021/09/08 08:46:54;;;;;;;8.90;8.00;;;;;;;;;;5019721;28;20173;-78
2021/09/08 08:49:20;;;;;;;8.57;7.30;;;;;;;;;;5023315;28;20663;-78
2021/09/08 08:51:46;;;;;;;11.13;9.93;;;;;;;;;;5021360;28;20176;-77
2021/09/08 08:54:11;;;;;;;10.80;9.13;;;;;;;;;;5022366;28;20843;-77
2021/09/08 08:56:36;;;;;;;12.23;9.37;;;;;;;;;;5018847;28;20208;-77
2021/09/08 08:59:02;;;;;;;11.77;9.23;;;;;;;;;;5022031;28;20183;-77
2021/09/08 09:01:30;;;;;;;10.43;9.20;;;;;;;;;;5020013;28;20913;-78
2021/09/08 09:04:03;;;;;;;13.10;9.43;;;;;;;;;;5022227;28;20200;-78
2021/09/08 09:06:28;;;;;;;10.30;9.13;;;;;;;;;;5022292;28;20461;-77
2021/09/08 09:09:06;;;;;;;11.27;9.10;;;;;;;;;;5017311;28;20424;-78
2021/09/08 09:11:32;;;;;;;11.27;10.10;;;;;;;;;;5017813;28;20752;-77
2021/09/08 09:13:58;;;;;;;9.63;8.30;;;;;;;;;;5021334;28;20455;-83
2021/09/08 09:16:25;;;;;;;9.77;8.13;;;;;;;;;;5029015;28;20455;-82
2021/09/08 09:18:50;;;;;;;8.83;7.47;;;;;;;;;;5019597;28;20181;-82
2021/09/08 09:21:16;;;;;;;12.60;8.57;;;;;;;;;;5027924;28;20438;-84
2021/09/08 09:23:44;;;;;;;9.70;8.40;;;;;;;;;;5023346;28;20221;-83
2021/09/08 09:26:09;;;;;;;9.77;8.27;;;;;;;;;;5019375;28;20200;-82
2021/09/08 09:28:42;;;;;;;10.33;8.77;;;;;;;;;;5024135;28;20469;-82
2021/09/08 09:31:14;;;;;;;8.80;7.23;;;;;;;;;;5020473;28;20172;-82
2021/09/08 09:33:48;;;;;;;7.57;6.87;;;;;;;;;;5025359;28;20460;-79
2021/09/08 09:36:19;;;;;;;9.43;7.20;;;;;;;;;;5021252;28;20535;-80
2021/09/08 09:38:45;;;;;;;10.40;8.07;;;;;;;;;;5019863;28;20439;-79
2021/09/08 09:41:11;;;;;;;7.93;6.77;;;;;;;;;;5021222;28;20454;-79
2021/09/08 09:43:43;;;;;;;9.73;8.23;;;;;;;;;;5020377;28;20450;-80
2021/09/08 09:46:08;;;;;;;9.00;7.50;;;;;;;;;;5018176;28;20185;-79
2021/09/08 09:48:34;;;;;;;11.97;7.33;;;;;;;;;;5021538;28;20493;-79
2021/09/08 09:51:03;;;;;;;10.10;7.77;;;;;;;;;;5020648;28;20259;-79
2021/09/08 09:53:29;;;;;;;9.17;7.40;;;;;;;;;;5019541;28;20617;-78
2021/09/08 09:55:54;;;;;;;7.43;6.67;;;;;;;;;;5020454;28;20463;-79
2021/09/08 09:58:20;;;;;;;8.00;7.20;;;;;;;;;;5019099;28;20836;-78
2021/09/08 10:00:45;;;;;;;8.97;6.63;;;;;;;;;;5019274;28;20951;-78
2021/09/08 10:03:11;;;;;;;7.83;7.03;;;;;;;;;;5017161;28;20208;-78
2021/09/08 10:05:37;;;;;;;8.73;7.80;;;;;;;;;;5017509;28;20676;-78
2021/09/08 10:08:03;;;;;;;10.93;8.07;;;;;;;;;;5021742;28;20181;-78
2021/09/08 10:10:30;;;;;;;8.07;6.87;;;;;;;;;;5013088;28;20522;-79
2021/09/08 10:13:16;;;;;;;8.07;7.27;;;;;;;;;;5020393;28;20450;-79
2021/09/08 10:25:13;;;;;;;7.75;6.95;;;;;;;;;;5047953;28;20446;-78
2021/09/08 10:27:38;;;;;;;8.07;7.00;;;;;;;;;;5068031;28;20184;-80
2021/09/08 10:30:04;;;;;;;7.90;6.87;;;;;;;;;;5058138;28;20452;-80
2021/09/08 10:32:31;;;;;;;9.93;7.00;;;;;;;;;;5054262;28;20242;-80
2021/09/08 10:34:56;;;;;;;7.03;5.83;;;;;;;;;;5055120;28;20499;-81
2021/09/08 10:37:23;;;;;;;7.77;6.97;;;;;;;;;;5055990;28;20930;-80
2021/09/08 10:39:48;;;;;;;8.10;7.30;;;;;;;;;;5054741;28;20183;-80
2021/09/08 10:42:14;;;;;;;7.17;6.47;;;;;;;;;;5051312;28;20427;-79
2021/09/08 10:44:41;;;;;;;6.83;5.80;;;;;;;;;;5053014;28;20210;-80
2021/09/08 10:47:06;;;;;;;7.20;6.50;;;;;;;;;;5053841;28;20596;-80
2021/09/08 10:49:40;;;;;;;7.30;6.60;;;;;;;;;;5057007;28;20432;-80
2021/09/08 10:52:06;;;;;;;7.28;6.57;;;;;;;;;;5050797;28;20431;-81
2021/09/08 10:54:31;;;;;;;8.30;7.20;;;;;;;;;;5052526;28;20222;-80
2021/09/08 10:56:56;;;;;;;7.83;7.13;;;;;;;;;;5051628;28;20367;-80
2021/09/08 10:59:22;;;;;;;8.30;7.50;;;;;;;;;;5053781;28;20179;-80
2021/09/08 11:01:50;;;;;;;8.67;7.40;;;;;;;;;;5057192;28;20182;-80
2021/09/08 11:04:16;;;;;;;11.30;7.40;;;;;;;;;;5054376;28;20551;-81
2021/09/08 11:06:44;;;;;;;9.93;6.57;;;;;;;;;;5057815;28;20420;-80
2021/09/08 11:09:10;;;;;;;8.37;6.97;;;;;;;;;;5057565;28;20201;-81
2021/09/08 11:11:48;;;;;;;10.03;7.17;;;;;;;;;;5055834;28;20846;-82
2021/09/08 11:14:13;;;;;;;7.53;6.80;;;;;;;;;;5055612;28;20487;-80
2021/09/08 11:16:38;;;;;;;7.27;6.10;;;;;;;;;;5055105;28;20867;-81
2021/09/08 11:19:07;;;;;;;9.73;7.47;;;;;;;;;;5055495;28;20610;-81
2021/09/08 11:21:32;;;;;;;7.70;7.00;;;;;;;;;;5055258;28;20194;-79
2021/09/08 11:23:59;;;;;;;8.07;6.83;;;;;;;;;;5054678;28;20469;-79
2021/09/08 11:26:25;;;;;;;10.77;6.70;;;;;;;;;;5055231;28;20522;-79
2021/09/08 11:28:56;;;;;;;9.37;7.47;;;;;;;;;;5053829;28;20436;-79
2021/09/08 11:31:21;;;;;;;6.70;6.03;;;;;;;;;;5055046;28;20183;-79
2021/09/08 11:33:46;;;;;;;8.60;6.60;;;;;;;;;;5054966;28;20500;-80
2021/09/08 11:36:13;;;;;;;7.77;7.00;;;;;;;;;;5042695;28;20180;-80
2021/09/08 11:38:41;;;;;;;7.60;6.80;;;;;;;;;;5039723;28;20186;-81
2021/09/08 11:41:06;;;;;;;7.40;6.43;;;;;;;;;;5039347;28;20798;-80
2021/09/08 11:43:35;;;;;;;8.60;7.23;;;;;;;;;;5042634;28;20458;-80
2021/09/08 11:46:19;;;;;;;7.77;6.40;;;;;;;;;;5040968;28;20206;-80
2021/09/08 11:48:45;;;;;;;8.40;6.60;;;;;;;;;;5038505;28;20426;-80
2021/09/08 11:51:11;;;;;;;7.43;6.53;;;;;;;;;;5040343;28;20436;-80
2021/09/08 11:53:37;;;;;;;9.47;7.20;;;;;;;;;;5042888;28;21128;-80
2021/09/08 11:56:06;;;;;;;7.43;6.70;;;;;;;;;;5039751;28;20449;-82
2021/09/08 11:58:34;;;;;;;7.40;6.53;;;;;;;;;;5041435;28;20189;-82
2021/09/08 12:01:00;;;;;;;7.33;6.67;;;;;;;;;;5044546;28;20456;-82
2021/09/08 12:03:27;;;;;;;8.93;7.50;;;;;;;;;;5042293;28;20455;-80
2021/09/08 12:05:52;;;;;;;7.63;6.83;;;;;;;;;;5041547;28;20434;-81
2021/09/08 12:08:23;;;;;;;7.57;6.77;;;;;;;;;;5042917;28;23179;-81
2021/09/08 12:10:49;;;;;;;7.07;6.10;;;;;;;;;;5043915;28;20575;-80
2021/09/08 12:13:30;;;;;;;8.30;7.47;;;;;;;;;;5045106;28;20509;-80
2021/09/08 12:15:56;;;;;;;7.70;6.90;;;;;;;;;;5041927;28;20181;-81
2021/09/08 12:18:21;;;;;;;7.57;6.80;;;;;;;;;;5040960;28;20461;-81
2021/09/08 12:20:47;;;;;;;6.53;5.80;;;;;;;;;;5041138;28;20626;-80
2021/09/08 12:23:41;;;;;;;7.10;6.20;;;;;;;;;;5042855;28;20262;-80
2021/09/08 12:26:08;;;;;;;10.40;6.17;;;;;;;;;;5033739;28;20183;-80
2021/09/08 12:28:34;;;;;;;6.67;5.97;;;;;;;;;;5039164;28;20435;-80
2021/09/08 12:31:18;;;;;;;8.87;6.47;;;;;;;;;;5040907;28;20454;-80
2021/09/08 12:33:59;;;;;;;6.40;5.00;;;;;;;;;;5037816;28;20254;-79
2021/09/08 12:36:25;;;;;;;6.00;5.40;;;;;;;;;;5037773;28;20438;-77
2021/09/08 12:38:51;;;;;;;7.37;6.40;;;;;;;;;;5039912;28;20540;-78
2021/09/08 12:41:29;;;;;;;7.53;6.80;;;;;;;;;;5036903;28;20211;-84
2021/09/08 12:43:54;;;;;;;6.00;5.50;;;;;;;;;;5040689;28;20477;-82
2021/09/08 12:46:38;;;;;;;6.50;5.57;;;;;;;;;;5038108;28;20846;-83
2021/09/08 12:49:04;;;;;;;6.60;5.70;;;;;;;;;;5039996;28;20183;-83
2021/09/08 12:51:29;;;;;;;6.87;5.83;;;;;;;;;;5040664;28;20466;-87
2021/09/08 12:53:54;;;;;;;6.53;5.87;;;;;;;;;;5039071;28;20447;-85
2021/09/08 12:56:20;;;;;;;7.83;6.10;;;;;;;;;;5036497;28;20552;-82
2021/09/08 12:58:45;;;;;;;6.13;5.53;;;;;;;;;;5037521;28;20476;-83
2021/09/08 13:01:10;;;;;;;6.43;5.73;;;;;;;;;;5039049;28;20439;-84
2021/09/08 13:03:36;;;;;;;7.27;5.93;;;;;;;;;;5037849;28;20254;-82
2021/09/08 13:06:01;;;;;;;6.43;5.83;;;;;;;;;;5038966;28;20221;-82
2021/09/08 13:08:26;;;;;;;5.83;5.30;;;;;;;;;;5039124;28;20235;-83
2021/09/08 13:10:51;;;;;;;4.47;4.07;;;;;;;;;;5040125;28;20194;-81
2021/09/08 13:13:17;;;;;;;5.90;5.30;;;;;;;;;;5039708;28;20282;-82
2021/09/08 13:15:43;;;;;;;24.47;8.17;;;;;;;;;;5039301;28;20186;-81
2021/09/08 13:18:09;;;;;;;5.93;5.30;;;;;;;;;;5040137;28;20211;-81
2021/09/08 13:20:34;;;;;;;7.60;5.40;;;;;;;;;;5039616;28;20497;-81
2021/09/08 13:22:59;;;;;;;6.23;5.37;;;;;;;;;;5037722;28;20220;-83
2021/09/08 13:25:25;;;;;;;6.57;5.37;;;;;;;;;;5043675;28;20191;-83
2021/09/08 13:27:50;;;;;;;6.90;5.47;;;;;;;;;;5035330;28;20172;-81
2021/09/08 13:30:15;;;;;;;6.77;5.10;;;;;;;;;;5036412;28;20176;-81
2021/09/08 13:32:41;;;;;;;5.50;5.00;;;;;;;;;;5038318;28;20208;-79
2021/09/08 13:35:06;;;;;;;4.73;4.17;;;;;;;;;;5035644;28;20186;-80
2021/09/08 13:37:31;;;;;;;5.20;4.30;;;;;;;;;;5039480;28;20561;-80
2021/09/08 13:39:57;;;;;;;5.43;4.93;;;;;;;;;;5038584;28;21900;-82
2021/09/08 13:42:22;;;;;;;4.67;4.13;;;;;;;;;;5037871;28;20184;-82
2021/09/08 13:44:47;;;;;;;4.40;4.10;;;;;;;;;;5037981;28;20203;-81
2021/09/08 13:47:12;;;;;;;5.67;5.17;;;;;;;;;;5037107;28;20183;-79
2021/09/08 13:49:38;;;;;;;4.23;3.83;;;;;;;;;;5039116;28;20179;-78
2021/09/08 13:52:03;;;;;;;4.70;4.27;;;;;;;;;;5037532;28;20211;-78
2021/09/08 13:54:28;;;;;;;4.60;4.20;;;;;;;;;;5038888;28;20755;-79
2021/09/08 13:56:53;;;;;;;5.43;4.93;;;;;;;;;;5036716;28;20743;-78
2021/09/08 13:59:19;;;;;;;4.60;4.20;;;;;;;;;;5036982;28;20183;-78
2021/09/08 14:01:44;;;;;;;4.47;4.07;;;;;;;;;;5035642;28;20200;-77
2021/09/08 14:04:09;;;;;;;5.60;5.10;;;;;;;;;;5037286;28;20220;-78
2021/09/08 14:06:34;;;;;;;4.97;4.47;;;;;;;;;;5037036;28;20176;-81
2021/09/08 14:09:00;;;;;;;5.00;4.60;;;;;;;;;;5035170;28;20172;-79
2021/09/08 14:11:25;;;;;;;5.13;4.63;;;;;;;;;;5036078;28;20632;-82
2021/09/08 14:13:50;;;;;;;4.87;4.47;;;;;;;;;;5035696;28;20195;-82
2021/09/08 14:16:16;;;;;;;4.77;4.30;;;;;;;;;;5039095;28;20185;-82
2021/09/08 14:18:41;;;;;;;5.70;5.20;;;;;;;;;;5038640;28;20199;-82
2021/09/08 14:21:06;;;;;;;4.43;4.10;;;;;;;;;;5041146;28;20233;-82
2021/09/08 14:23:31;;;;;;;6.57;4.97;;;;;;;;;;5036760;28;20712;-81
2021/09/08 14:25:57;;;;;;;4.20;3.90;;;;;;;;;;5036692;28;20182;-80
2021/09/08 14:28:24;;;;;;;4.57;4.17;;;;;;;;;;5035865;28;20182;-79